Аэропорт: Байкал. Улан-Удэ

ICAO: UIUU

METAR:
2021-01-27 04:30:00
UIUU 270430Z 17003MPS 9999 NSC M20/M28 Q1026 R26/810555 NOSIG RMK QFE725/0967
METAR:
2021-01-27 02:00:00
TAF UIUU 270200Z 2703/2803 27003G08MPS 6000 NSC TEMPO 2703/2803 2500 BR FU